createdAt,value
2022-08-26T00:01:57.986Z,12.68
2022-08-26T00:04:27.071Z,12.60
2022-08-26T00:06:55.862Z,12.13
2022-08-26T00:09:26.598Z,11.73
2022-08-26T00:11:55.475Z,12.25
2022-08-26T00:14:29.525Z,12.23
2022-08-26T00:17:00.118Z,12.10
2022-08-26T00:19:28.351Z,12.63
2022-08-26T00:21:56.816Z,13.02
2022-08-26T00:24:26.461Z,12.55
2022-08-26T00:26:54.847Z,12.82
2022-08-26T00:29:23.229Z,12.38
2022-08-26T00:31:51.921Z,12.45
2022-08-26T00:34:20.188Z,12.57
2022-08-26T00:36:51.864Z,12.43
2022-08-26T00:39:21.078Z,12.27
2022-08-26T00:41:50.734Z,12.25
2022-08-26T00:44:20.224Z,13.52
2022-08-26T00:46:52.527Z,13.18
2022-08-26T00:49:27.789Z,13.05
2022-08-26T00:52:02.054Z,13.15
2022-08-26T00:54:35.486Z,13.40
2022-08-26T00:57:16.529Z,12.70
2022-08-26T00:59:47.676Z,12.93
2022-08-26T01:02:21.038Z,12.93
2022-08-26T01:04:55.799Z,12.95
2022-08-26T01:07:27.532Z,12.88
2022-08-26T01:09:59.873Z,13.13
2022-08-26T01:12:32.883Z,13.30
2022-08-26T01:15:02.661Z,14.55
2022-08-26T01:17:33.863Z,13.60
2022-08-26T01:20:08.730Z,13.15
2022-08-26T01:22:47.223Z,13.30
2022-08-26T01:25:16.222Z,12.73
2022-08-26T01:27:45.002Z,13.85
2022-08-26T01:30:18.651Z,13.95
2022-08-26T01:32:47.997Z,14.20
2022-08-26T01:35:16.268Z,13.82
2022-08-26T01:37:49.262Z,13.63
2022-08-26T01:40:22.061Z,13.95
2022-08-26T01:42:51.005Z,13.40
2022-08-26T01:45:24.488Z,13.60
2022-08-26T01:47:57.151Z,13.55
2022-08-26T01:50:30.622Z,13.63
2022-08-26T01:53:07.831Z,14.38
2022-08-26T01:55:39.476Z,14.02
2022-08-26T01:58:14.431Z,13.65
2022-08-26T02:00:44.184Z,14.70
2022-08-26T02:03:21.444Z,14.07
2022-08-26T02:05:53.843Z,14.68
2022-08-26T02:08:28.418Z,14.93
2022-08-26T02:10:57.242Z,14.80
2022-08-26T02:13:30.116Z,15.50
2022-08-26T02:16:00.812Z,14.63
2022-08-26T02:18:31.508Z,14.65
2022-08-26T02:21:00.402Z,14.82
2022-08-26T02:23:30.363Z,14.20
2022-08-26T02:26:04.850Z,14.48
2022-08-26T02:28:38.893Z,15.63
2022-08-26T02:31:07.981Z,15.13
2022-08-26T02:33:36.425Z,15.65
2022-08-26T02:36:05.613Z,15.80
2022-08-26T02:38:37.444Z,15.55
2022-08-26T02:41:08.626Z,15.70
2022-08-26T02:43:38.533Z,16.50
2022-08-26T02:46:07.419Z,15.75
2022-08-26T02:48:35.662Z,15.90
2022-08-26T02:51:04.746Z,15.75
2022-08-26T02:53:35.596Z,15.93
2022-08-26T02:56:08.316Z,15.70
2022-08-26T02:58:36.818Z,15.98
2022-08-26T03:01:05.797Z,15.70
2022-08-26T03:03:35.262Z,16.05
2022-08-26T03:06:03.393Z,16.08
2022-08-26T03:08:31.681Z,15.88
2022-08-26T03:11:01.578Z,15.80
2022-08-26T03:13:31.761Z,16.02
2022-08-26T03:16:02.998Z,15.90
2022-08-26T03:18:31.711Z,16.17
2022-08-26T03:21:00.500Z,16.35
2022-08-26T03:23:28.925Z,17.00
2022-08-26T03:25:57.322Z,16.80
2022-08-26T03:28:27.236Z,17.08
2022-08-26T03:30:57.227Z,16.85
2022-08-26T03:33:26.477Z,17.50
2022-08-26T03:35:55.653Z,16.77
2022-08-26T03:38:26.218Z,17.75
2022-08-26T03:40:56.298Z,17.45
2022-08-26T03:43:26.857Z,17.48
2022-08-26T03:45:56.648Z,17.63
2022-08-26T03:48:25.762Z,18.25
2022-08-26T03:50:54.191Z,18.70
2022-08-26T03:53:24.238Z,18.15
2022-08-26T03:55:52.687Z,17.13
2022-08-26T03:58:21.582Z,17.20
2022-08-26T04:00:55.378Z,16.30
2022-08-26T04:03:40.364Z,16.17
2022-08-26T04:06:09.114Z,17.60
2022-08-26T04:08:37.773Z,17.15
2022-08-26T04:11:07.459Z,17.48
2022-08-26T04:13:35.882Z,16.05
2022-08-26T04:16:04.579Z,16.00
2022-08-26T04:18:37.063Z,17.25
2022-08-26T04:21:08.009Z,16.55
2022-08-26T04:23:47.518Z,15.55
2022-08-26T04:26:16.943Z,15.43
2022-08-26T04:28:45.316Z,16.48
2022-08-26T04:31:14.697Z,15.07
2022-08-26T04:33:45.933Z,15.52
2022-08-26T04:36:15.528Z,16.95
2022-08-26T04:38:45.783Z,16.90
2022-08-26T04:41:15.656Z,16.08
2022-08-26T04:43:45.613Z,16.65
2022-08-26T04:46:17.248Z,17.35
2022-08-26T04:48:47.875Z,17.15
2022-08-26T04:51:16.535Z,16.10
2022-08-26T04:53:44.776Z,16.25
2022-08-26T04:56:13.491Z,15.32
2022-08-26T04:58:42.277Z,16.45
2022-08-26T05:01:10.603Z,15.98
2022-08-26T05:03:38.998Z,15.77
2022-08-26T05:06:12.290Z,15.30
2022-08-26T05:08:41.041Z,15.07
2022-08-26T05:11:10.307Z,14.77
2022-08-26T05:13:39.568Z,15.05
2022-08-26T05:16:11.587Z,14.65
2022-08-26T05:18:43.482Z,15.05
2022-08-26T05:21:21.319Z,14.40
2022-08-26T05:23:51.726Z,14.88
2022-08-26T05:26:23.206Z,14.60
2022-08-26T05:28:54.655Z,14.48
2022-08-26T05:31:26.187Z,14.80
2022-08-26T05:33:54.817Z,14.15
2022-08-26T05:36:26.858Z,14.48
2022-08-26T05:38:55.511Z,14.35
2022-08-26T05:41:36.089Z,15.00
2022-08-26T05:44:07.368Z,14.70
2022-08-26T05:46:36.807Z,14.95
2022-08-26T05:49:12.680Z,15.10
2022-08-26T05:51:46.420Z,15.27
2022-08-26T05:54:22.022Z,14.20
2022-08-26T05:56:51.512Z,14.70
2022-08-26T05:59:21.398Z,14.70
2022-08-26T06:01:54.561Z,14.85
2022-08-26T06:04:26.760Z,14.57
2022-08-26T06:06:58.647Z,14.15
2022-08-26T06:09:27.719Z,14.30
2022-08-26T06:11:58.751Z,14.02
2022-08-26T06:14:27.034Z,14.15
2022-08-26T06:16:55.245Z,13.93
2022-08-26T06:19:23.618Z,14.70
2022-08-26T06:21:54.733Z,13.50
2022-08-26T06:24:42.205Z,13.23
2022-08-26T06:27:13.705Z,12.93
2022-08-26T06:29:42.810Z,13.40
2022-08-26T06:32:11.031Z,14.30
2022-08-26T06:34:39.218Z,14.15
2022-08-26T06:37:08.803Z,13.55
2022-08-26T06:39:41.252Z,13.63
2022-08-26T06:42:10.867Z,13.63
2022-08-26T06:44:40.852Z,13.05
2022-08-26T06:47:09.336Z,13.23
2022-08-26T06:49:38.195Z,12.80
2022-08-26T06:52:07.993Z,13.55
2022-08-26T06:54:41.512Z,13.38
2022-08-26T06:57:11.192Z,13.10
2022-08-26T06:59:39.861Z,12.95
2022-08-26T07:02:08.759Z,12.70
2022-08-26T07:04:41.679Z,12.27
2022-08-26T07:07:14.102Z,12.18
2022-08-26T07:09:43.703Z,12.85
2022-08-26T07:12:11.840Z,12.60
2022-08-26T07:14:40.014Z,12.98
2022-08-26T07:17:13.941Z,12.40
2022-08-26T07:19:43.204Z,12.63
2022-08-26T07:22:11.418Z,12.35
2022-08-26T07:24:42.374Z,12.23
2022-08-26T07:27:15.814Z,12.10
2022-08-26T07:29:44.831Z,12.38
2022-08-26T07:32:20.273Z,12.63
2022-08-26T07:34:51.693Z,12.18
2022-08-26T07:37:19.969Z,11.57
2022-08-26T07:39:48.621Z,12.05
2022-08-26T07:42:20.431Z,12.10
2022-08-26T07:44:49.115Z,11.55
2022-08-26T07:47:25.062Z,11.85
2022-08-26T07:49:56.211Z,11.02
2022-08-26T07:52:27.073Z,12.27
2022-08-26T07:54:56.618Z,11.32
2022-08-26T07:57:26.327Z,11.00
2022-08-26T07:59:55.217Z,11.75
2022-08-26T08:02:25.102Z,11.38
2022-08-26T08:04:54.486Z,11.43
2022-08-26T08:07:38.777Z,10.63
2022-08-26T08:10:13.602Z,10.52
2022-08-26T08:12:43.862Z,11.50
2022-08-26T08:15:13.856Z,10.80
2022-08-26T08:17:43.734Z,11.20
2022-08-26T08:20:13.529Z,10.73
2022-08-26T08:22:43.287Z,11.30
2022-08-26T08:25:12.313Z,10.60
2022-08-26T08:27:45.098Z,10.77
2022-08-26T08:30:14.563Z,9.60
2022-08-26T08:32:44.344Z,10.60
2022-08-26T08:35:15.978Z,10.18
2022-08-26T08:37:46.218Z,10.73
2022-08-26T08:40:18.174Z,10.68
2022-08-26T08:42:55.725Z,10.57
2022-08-26T08:45:33.338Z,10.45
2022-08-26T08:48:07.837Z,10.30
2022-08-26T08:50:40.736Z,10.65
2022-08-26T08:53:15.104Z,10.55
2022-08-26T08:55:57.098Z,11.65
2022-08-26T08:58:36.399Z,10.52
2022-08-26T09:01:09.878Z,9.88
2022-08-26T09:03:51.359Z,11.23
2022-08-26T09:06:20.507Z,10.80
2022-08-26T09:08:51.526Z,10.80
2022-08-26T09:11:21.289Z,11.20
2022-08-26T09:13:53.018Z,10.88
2022-08-26T09:16:51.665Z,10.70
2022-08-26T09:19:29.984Z,10.45
2022-08-26T09:21:58.785Z,11.05
2022-08-26T09:24:38.411Z,9.77
2022-08-26T09:27:11.453Z,11.18
2022-08-26T09:30:12.449Z,10.45
2022-08-26T09:32:41.384Z,10.82
2022-08-26T09:35:23.747Z,9.38
2022-08-26T09:38:24.998Z,9.75
2022-08-26T09:40:59.396Z,9.48
2022-08-26T09:43:29.137Z,9.75
2022-08-26T09:46:13.754Z,10.38
2022-08-26T09:48:43.614Z,9.10
2022-08-26T09:51:29.493Z,9.68
2022-08-26T09:54:00.875Z,10.43
2022-08-26T09:56:32.083Z,9.05
2022-08-26T09:59:02.572Z,9.63
2022-08-26T10:01:36.846Z,9.00
2022-08-26T10:04:10.243Z,9.30
2022-08-26T10:06:44.278Z,9.57
2022-08-26T10:09:17.165Z,9.20
2022-08-26T10:11:50.606Z,9.60
2022-08-26T10:15:09.573Z,8.73
2022-08-26T10:18:12.429Z,8.95
2022-08-26T10:20:52.352Z,8.63
2022-08-26T10:23:25.365Z,8.40
2022-08-26T10:25:59.238Z,8.50
2022-08-26T10:28:34.731Z,7.60
2022-08-26T10:31:08.031Z,7.25
2022-08-26T10:33:39.230Z,7.00
2022-08-26T10:36:39.308Z,6.47
2022-08-26T10:39:23.482Z,6.55
2022-08-26T10:41:56.871Z,7.20
2022-08-26T10:44:27.555Z,6.38
2022-08-26T10:47:02.665Z,6.60
2022-08-26T10:49:32.326Z,6.57
2022-08-26T10:52:04.497Z,6.32
2022-08-26T10:54:44.960Z,6.80
2022-08-26T10:57:18.043Z,7.03
2022-08-26T10:59:56.653Z,6.45
2022-08-26T11:02:31.385Z,6.15
2022-08-26T11:05:53.786Z,6.18
2022-08-26T11:08:30.793Z,6.45
2022-08-26T11:11:01.101Z,6.50
2022-08-26T11:14:04.361Z,6.00
2022-08-26T11:16:42.910Z,6.28
2022-08-26T11:19:58.997Z,6.22
2022-08-26T11:22:28.843Z,6.28
2022-08-26T11:25:15.322Z,6.03
2022-08-26T11:28:05.490Z,5.97
2022-08-26T11:30:41.107Z,6.35
2022-08-26T11:33:09.525Z,5.85
2022-08-26T11:35:50.116Z,6.00
2022-08-26T11:38:29.885Z,6.22
2022-08-26T11:41:10.594Z,6.18
2022-08-26T11:43:41.454Z,6.70
2022-08-26T11:46:11.590Z,6.00
2022-08-26T11:48:42.302Z,6.47
2022-08-26T11:51:40.172Z,5.57
2022-08-26T11:54:16.010Z,6.03
2022-08-26T11:56:47.152Z,5.75
2022-08-26T11:59:20.817Z,5.57
2022-08-26T12:01:53.169Z,5.35
2022-08-26T12:04:29.596Z,5.68
2022-08-26T12:07:00.630Z,5.57
2022-08-26T12:09:32.948Z,5.50
2022-08-26T12:12:12.681Z,5.28
2022-08-26T12:14:41.617Z,5.63
2022-08-26T12:17:12.293Z,6.20
2022-08-26T12:19:40.946Z,5.70
2022-08-26T12:22:17.929Z,5.40
2022-08-26T12:24:53.222Z,6.10
2022-08-26T12:27:24.346Z,5.85
2022-08-26T12:30:04.328Z,5.65
2022-08-26T12:32:36.082Z,6.07
2022-08-26T12:37:38.429Z,5.75
2022-08-26T12:40:35.291Z,5.45
2022-08-26T12:43:40.861Z,4.28
2022-08-26T12:46:11.793Z,4.35
2022-08-26T12:48:43.885Z,3.83
2022-08-26T12:51:22.773Z,4.03
2022-08-26T12:53:51.188Z,3.67
2022-08-26T12:56:27.751Z,4.47
2022-08-26T12:59:22.073Z,4.70
2022-08-26T13:01:50.439Z,4.72
2022-08-26T13:04:42.594Z,4.88
2022-08-26T13:07:16.353Z,6.20
2022-08-26T13:09:44.602Z,7.22
2022-08-26T13:12:24.917Z,6.85
2022-08-26T13:14:53.470Z,6.60
2022-08-26T13:17:22.279Z,6.20
2022-08-26T13:19:50.510Z,6.18
2022-08-26T13:22:22.956Z,6.60
2022-08-26T13:24:54.183Z,6.07
2022-08-26T13:27:26.185Z,6.57
2022-08-26T13:29:57.168Z,6.00
2022-08-26T13:32:27.491Z,5.88
2022-08-26T13:34:58.592Z,6.32
2022-08-26T13:37:34.495Z,6.30
2022-08-26T13:40:05.640Z,6.40
2022-08-26T13:42:35.639Z,6.10
2022-08-26T13:45:04.990Z,5.78
2022-08-26T13:47:33.554Z,6.47
2022-08-26T13:50:02.031Z,6.28
2022-08-26T13:52:31.196Z,6.07
2022-08-26T13:55:00.785Z,5.90
2022-08-26T13:57:30.057Z,6.30
2022-08-26T14:00:00.218Z,6.60
2022-08-26T14:02:28.943Z,6.40
2022-08-26T14:04:57.103Z,6.05
2022-08-26T14:07:25.309Z,6.40
2022-08-26T14:09:53.833Z,6.00
2022-08-26T14:12:22.069Z,6.13
2022-08-26T14:14:50.272Z,6.05
2022-08-26T14:17:22.563Z,6.15
2022-08-26T14:19:52.191Z,6.15
2022-08-26T14:22:23.696Z,6.07
2022-08-26T14:24:52.019Z,5.88
2022-08-26T14:27:20.124Z,5.72
2022-08-26T14:29:48.390Z,5.32
2022-08-26T14:32:23.245Z,5.13
2022-08-26T14:34:51.741Z,5.85
2022-08-26T14:37:20.274Z,5.90
2022-08-26T14:39:48.715Z,5.88
2022-08-26T14:42:20.932Z,5.32
2022-08-26T14:44:53.374Z,5.25
2022-08-26T14:47:23.202Z,5.78
2022-08-26T14:49:51.457Z,5.78
2022-08-26T14:52:19.756Z,5.43
2022-08-26T14:54:46.888Z,5.35
2022-08-26T14:57:17.243Z,5.30
2022-08-26T14:59:49.685Z,5.47
2022-08-26T15:02:32.704Z,5.40
2022-08-26T15:05:04.049Z,5.25
2022-08-26T15:07:32.770Z,5.47
2022-08-26T15:10:01.993Z,5.53
2022-08-26T15:12:30.165Z,5.45
2022-08-26T15:14:58.372Z,5.18
2022-08-26T15:17:26.925Z,4.95
2022-08-26T15:19:55.354Z,5.53
2022-08-26T15:22:25.361Z,4.55
2022-08-26T15:24:58.026Z,4.78
2022-08-26T15:27:26.691Z,4.00
2022-08-26T15:29:55.097Z,3.40
2022-08-26T15:32:23.325Z,3.42
2022-08-26T15:34:53.013Z,4.13
2022-08-26T15:37:21.226Z,4.68
2022-08-26T15:39:52.016Z,4.57
2022-08-26T15:42:20.882Z,5.15
2022-08-26T15:44:49.880Z,4.95
2022-08-26T15:47:18.362Z,5.30
2022-08-26T15:49:46.634Z,5.82
2022-08-26T15:52:17.122Z,5.57
2022-08-26T15:54:45.469Z,8.80
2022-08-26T15:57:17.588Z,6.60
2022-08-26T15:59:48.103Z,5.95
2022-08-26T16:02:16.389Z,5.60
2022-08-26T16:04:44.616Z,6.20
2022-08-26T16:07:13.700Z,6.88
2022-08-26T16:09:42.183Z,6.75
2022-08-26T16:12:10.475Z,6.70
2022-08-26T16:14:42.191Z,6.35
2022-08-26T16:17:10.420Z,6.82
2022-08-26T16:19:38.674Z,6.88
2022-08-26T16:22:08.060Z,7.28
2022-08-26T16:24:36.749Z,7.70
2022-08-26T16:27:05.402Z,8.38
2022-08-26T16:29:33.706Z,7.55
2022-08-26T16:32:08.552Z,8.23
2022-08-26T16:34:37.243Z,8.75
2022-08-26T16:37:15.551Z,8.32
2022-08-26T16:39:44.939Z,9.25
2022-08-26T16:42:13.501Z,9.80
2022-08-26T16:44:45.323Z,9.23
2022-08-26T16:47:15.978Z,10.07
2022-08-26T16:49:44.288Z,11.52
2022-08-26T16:52:14.055Z,11.70
2022-08-26T16:54:42.374Z,11.32
2022-08-26T16:57:12.126Z,11.35
2022-08-26T16:59:41.595Z,11.07
2022-08-26T17:02:10.573Z,12.85
2022-08-26T17:04:41.205Z,12.13
2022-08-26T17:07:14.410Z,13.00
2022-08-26T17:09:43.091Z,13.23
2022-08-26T17:12:11.351Z,13.48
2022-08-26T17:14:39.603Z,13.45
2022-08-26T17:17:08.345Z,14.05
2022-08-26T17:19:40.755Z,13.70
2022-08-26T17:22:16.982Z,14.98
2022-08-26T17:24:45.192Z,14.48
2022-08-26T17:27:13.471Z,15.00
2022-08-26T17:29:41.734Z,15.15
2022-08-26T17:32:10.019Z,11.57
2022-08-26T17:34:38.248Z,11.50
2022-08-26T17:37:06.487Z,11.85
2022-08-26T17:39:37.255Z,13.48
2022-08-26T17:42:05.977Z,13.32
2022-08-26T17:44:35.018Z,12.73
2022-08-26T17:47:03.294Z,14.30
2022-08-26T17:49:31.639Z,15.02
2022-08-26T17:52:00.492Z,12.68
2022-08-26T17:54:28.963Z,11.73
2022-08-26T17:57:01.181Z,11.82
2022-08-26T17:59:30.635Z,12.93
2022-08-26T18:01:59.649Z,12.88
2022-08-26T18:04:28.105Z,9.95
2022-08-26T18:06:56.272Z,9.45
2022-08-26T18:09:31.117Z,10.25
2022-08-26T18:12:01.238Z,9.90
2022-08-26T18:14:29.828Z,10.77
2022-08-26T18:16:58.031Z,11.98
2022-08-26T18:19:26.604Z,11.57
2022-08-26T18:21:54.861Z,11.55
2022-08-26T18:24:23.336Z,10.10
2022-08-26T18:26:51.567Z,10.20
2022-08-26T18:29:21.743Z,10.02
2022-08-26T18:31:49.929Z,10.32
2022-08-26T18:34:19.432Z,11.38
2022-08-26T18:36:48.394Z,11.25
2022-08-26T18:39:19.108Z,11.70
2022-08-26T18:41:53.409Z,11.63
2022-08-26T18:44:23.757Z,11.32
2022-08-26T18:46:52.864Z,11.15
2022-08-26T18:49:22.631Z,11.05
2022-08-26T18:51:52.327Z,11.25
2022-08-26T18:56:49.592Z,12.68
2022-08-26T18:59:18.254Z,11.75
2022-08-26T19:01:50.521Z,13.25
2022-08-26T19:04:19.231Z,14.25
2022-08-26T19:11:31.124Z,13.55
2022-08-26T19:14:00.448Z,14.02
2022-08-26T19:16:29.666Z,13.70
2022-08-26T19:19:00.982Z,13.10
2022-08-26T19:21:30.163Z,12.13
2022-08-26T19:23:59.441Z,12.20
2022-08-26T19:26:29.218Z,11.85
2022-08-26T19:28:57.779Z,12.65
2022-08-26T19:31:51.141Z,13.15
2022-08-26T19:34:20.890Z,13.35
2022-08-26T19:36:54.044Z,12.93
2022-08-26T19:39:23.533Z,13.23
2022-08-26T19:41:54.257Z,13.20
2022-08-26T19:44:41.757Z,13.32
2022-08-26T19:47:14.152Z,14.75
2022-08-26T19:49:45.726Z,15.07
2022-08-26T19:52:15.255Z,14.20
2022-08-26T19:54:44.756Z,14.30
2022-08-26T19:57:12.963Z,14.95
2022-08-26T19:59:41.598Z,15.90
2022-08-26T20:02:11.273Z,15.57
2022-08-26T20:04:40.779Z,15.10
2022-08-26T20:07:12.904Z,15.15
2022-08-26T20:09:43.545Z,15.35
2022-08-26T20:12:21.014Z,15.57
2022-08-26T20:15:16.772Z,15.60
2022-08-26T20:17:44.953Z,16.25
2022-08-26T20:20:33.226Z,15.60
2022-08-26T20:23:05.140Z,16.20
2022-08-26T20:25:34.050Z,15.85
2022-08-26T20:28:02.602Z,14.98
2022-08-26T20:30:30.870Z,17.27
2022-08-26T20:33:54.680Z,18.17
2022-08-26T20:36:25.848Z,17.40
2022-08-26T20:38:56.332Z,16.25
2022-08-26T20:41:25.710Z,13.90
2022-08-26T20:43:54.521Z,14.38
2022-08-26T20:46:25.096Z,13.85
2022-08-26T20:48:54.172Z,13.05
2022-08-26T20:51:23.508Z,14.20
2022-08-26T20:53:52.081Z,13.15
2022-08-26T20:56:24.295Z,13.15
2022-08-26T20:58:53.359Z,12.98
2022-08-26T21:01:24.009Z,12.95
2022-08-26T21:03:53.296Z,12.82
2022-08-26T21:06:22.209Z,12.52
2022-08-26T21:08:51.568Z,12.70
2022-08-26T21:11:23.004Z,13.68
2022-08-26T21:14:16.687Z,13.18
2022-08-26T21:16:41.259Z,12.80
2022-08-26T21:19:12.221Z,11.48
2022-08-26T21:21:40.718Z,11.10
2022-08-26T21:24:09.841Z,10.75
2022-08-26T21:26:39.863Z,11.30
2022-08-26T21:29:09.778Z,11.02
2022-08-26T21:31:43.552Z,11.20
2022-08-26T21:34:14.342Z,9.90
2022-08-26T21:36:42.530Z,9.68
2022-08-26T21:39:12.199Z,10.50
2022-08-26T21:41:42.969Z,9.15
2022-08-26T21:44:12.824Z,9.00
2022-08-26T21:46:41.413Z,8.70
2022-08-26T21:49:12.212Z,9.25
2022-08-26T21:51:43.074Z,8.75
2022-08-26T21:54:12.148Z,9.68
2022-08-26T21:56:44.524Z,9.25
2022-08-26T21:59:13.139Z,8.45
2022-08-26T22:01:41.377Z,8.07
2022-08-26T22:04:10.888Z,7.85
2022-08-26T22:06:43.400Z,7.85
2022-08-26T22:09:13.217Z,8.40
2022-08-26T22:11:43.567Z,8.60
2022-08-26T22:14:12.729Z,9.27
2022-08-26T22:16:41.149Z,8.20
2022-08-26T22:19:17.530Z,8.82
2022-08-26T22:21:46.455Z,6.45
2022-08-26T22:24:15.345Z,7.05
2022-08-26T22:26:45.476Z,6.82
2022-08-26T22:29:14.562Z,7.30
2022-08-26T22:31:43.314Z,7.25
2022-08-26T22:34:15.100Z,7.80
2022-08-26T22:36:45.526Z,7.60
2022-08-26T22:39:14.986Z,7.32
2022-08-26T22:41:48.459Z,6.50
2022-08-26T22:44:17.507Z,5.93
2022-08-26T22:46:46.158Z,6.70
2022-08-26T22:49:16.897Z,7.00
2022-08-26T22:51:45.115Z,6.93
2022-08-26T22:54:13.827Z,7.07
2022-08-26T22:56:42.436Z,6.32
2022-08-26T22:59:12.602Z,6.95
2022-08-26T23:01:43.199Z,5.90
2022-08-26T23:04:11.766Z,6.45
2022-08-26T23:06:42.991Z,5.85
2022-08-26T23:09:12.353Z,6.13
2022-08-26T23:11:43.988Z,6.47
2022-08-26T23:14:13.825Z,6.40
2022-08-26T23:16:43.072Z,6.65
2022-08-26T23:19:13.335Z,6.80
2022-08-26T23:21:41.875Z,6.65
2022-08-26T23:24:11.106Z,7.25
2022-08-26T23:26:40.816Z,7.07
2022-08-26T23:29:10.550Z,6.53
2022-08-26T23:31:41.754Z,6.90
2022-08-26T23:34:29.386Z,6.88
2022-08-26T23:36:58.976Z,6.72
2022-08-26T23:39:28.462Z,7.40
2022-08-26T23:41:57.384Z,6.75
2022-08-26T23:44:26.680Z,6.90
2022-08-26T23:46:56.645Z,6.32
2022-08-26T23:49:26.494Z,6.25
2022-08-26T23:52:24.289Z,6.63
2022-08-26T23:54:52.804Z,6.72
2022-08-26T23:57:23.156Z,6.20
2022-08-26T23:59:51.494Z,7.00
